MSC Jordan — HPMK — position and weather

sailwx.info

Track history (hours):
 
Tides and Currents Weather Stations Pressure Air Temp Water Temp Dewpoint Dewpoint Depression Visibility Wind Speed Wind Dir Waves Ship Positions

MSC Jordan

Last reported at 2014-Sep-21 20:33 UTC. Time now 2014-Oct-01 10:26 UTC.
Position N 49°37' W 000°27'.
Warning: this ship's position is 9 days out of date.

Length 237 m; draft 11.1 m.

Type: Ship. MMSI: 355194000.

Date/timePositionNaut miles runAvg speedWind from/ knotsBaromVisibWave heightAir tempDewpointWater temp
2014-Sep-21 20:33N 49°37' W 000°27'1615.9
2014-Sep-21 19:33N 49°31' W 000°04'9 8.7
2014-Sep-21 18:32N 49°28' E 000°09'0 0.0
2014-Sep-21 17:32N 49°28' E 000°09'0 0.0
2014-Sep-21 16:32N 49°28' E 000°09'0 0.0
2014-Sep-21 15:32N 49°28' E 000°09'0 0.0
2014-Sep-21 14:32N 49°28' E 000°09'0 0.0
2014-Sep-21 13:32N 49°28' E 000°09'0 0.0
2014-Sep-21 12:32N 49°28' E 000°09'0 0.0
2014-Sep-21 11:32N 49°28' E 000°09'0 0.0
2014-Sep-21 10:32N 49°28' E 000°09'0 0.0
2014-Sep-21 09:33N 49°28' E 000°09'0 0.0
2014-Sep-21 08:33N 49°28' E 000°09'0 0.0
2014-Sep-21 07:32N 49°28' E 000°09'0 0.0
2014-Sep-21 06:32N 49°28' E 000°09'0 0.0
2014-Sep-21 05:29N 49°28' E 000°09'0 0.0
2014-Sep-21 04:32N 49°28' E 000°09'0 0.0
2014-Sep-21 03:32N 49°28' E 000°09'3 2.8
2014-Sep-21 02:33N 49°29' E 000°05'1211.5
2014-Sep-21 01:33N 49°35' W 000°10'6215.5
2014-Sep-20 21:34N 50°32' E 000°27'1918.9
2014-Sep-20 20:33N 50°41' E 000°53'2618.8
2014-Sep-20 19:09N 50°59' E 001°24'1220.5
2014-Sep-20 18:33N 51°08' E 001°37'2020.5
2014-Sep-20 17:33N 51°26' E 001°51'2020.1
2014-Sep-20 16:33N 51°46' E 001°44'1414.0
2014-Sep-20 15:33N 51°56' E 001°29'7 6.6
2014-Sep-20 14:31N 51°58' E 001°18'0 0.0
2014-Sep-20 13:31N 51°58' E 001°18'0 0.0
2014-Sep-20 12:31N 51°58' E 001°18'0 0.0
2014-Sep-20 11:31N 51°58' E 001°18'0 0.0
2014-Sep-20 10:31N 51°58' E 001°18'0 0.0
2014-Sep-20 09:32N 51°58' E 001°18'0 0.0
2014-Sep-20 08:33N 51°58' E 001°18'0 0.0
2014-Sep-20 07:31N 51°58' E 001°18'0 0.0
2014-Sep-20 06:31N 51°58' E 001°18'0 0.0
2014-Sep-20 05:33N 51°58' E 001°18'0 0.0
2014-Sep-20 04:33N 51°58' E 001°18'0 0.0
2014-Sep-20 03:33N 51°58' E 001°18'0 0.0
2014-Sep-20 02:33N 51°58' E 001°18'0 0.0
2014-Sep-20 01:32N 51°58' E 001°18'0 0.0
2014-Sep-20 00:32N 51°58' E 001°18'0 0.0
2014-Sep-19 23:32N 51°58' E 001°18'0 0.0
2014-Sep-19 22:32N 51°58' E 001°18'0 0.0
2014-Sep-19 21:32N 51°58' E 001°18'0 0.0
2014-Sep-19 20:32N 51°58' E 001°18'0 0.0
2014-Sep-19 19:32N 51°58' E 001°18'0 0.0
2014-Sep-19 18:31N 51°58' E 001°18'0 0.0
2014-Sep-19 17:32N 51°58' E 001°18'0 0.0
2014-Sep-19 16:31N 51°58' E 001°18'0 0.0
2014-Sep-19 15:31N 51°58' E 001°18'0 0.0
2014-Sep-19 14:32N 51°58' E 001°18'0 0.0
2014-Sep-19 13:31N 51°58' E 001°18'3 2.9
2014-Sep-19 12:33N 51°56' E 001°21'1111.4
2014-Sep-19 11:34N 51°52' E 001°39'2 1.8
2014-Sep-19 10:33N 51°53' E 001°40'0 0.2
2014-Sep-19 09:32N 51°53' E 001°40'0 0.0
2014-Sep-19 08:32N 51°53' E 001°40'0 0.0
2014-Sep-19 07:32N 51°53' E 001°40'0 0.0
2014-Sep-19 06:32N 51°53' E 001°40'0 0.0
2014-Sep-19 05:32N 51°53' E 001°40'0 0.0
2014-Sep-19 04:32N 51°53' E 001°40'0 0.0
2014-Sep-19 03:32N 51°53' E 001°40'0 0.0
2014-Sep-19 02:32N 51°53' E 001°40'0 0.0
2014-Sep-19 01:32N 51°53' E 001°40'0 0.2
2014-Sep-19 00:32N 51°53' E 001°40'0 0.1
2014-Sep-18 23:32N 51°54' E 001°40'0 0.0
2014-Sep-18 22:32N 51°54' E 001°40'0 0.2
2014-Sep-18 21:32N 51°53' E 001°40'0 0.2
2014-Sep-18 20:32N 51°53' E 001°40'0 0.0
2014-Sep-18 19:32N 51°53' E 001°40'0 0.0
2014-Sep-18 18:32N 51°53' E 001°40'0 0.0
2014-Sep-18 17:32N 51°53' E 001°40'0 0.0
2014-Sep-18 16:32N 51°53' E 001°40'0 0.0
2014-Sep-18 15:32N 51°53' E 001°40'0 0.0
2014-Sep-18 14:32N 51°53' E 001°40'0 0.0
2014-Sep-18 13:32N 51°53' E 001°40'0 0.2
2014-Sep-18 12:32N 51°53' E 001°40'0 0.1
2014-Sep-18 11:32N 51°53' E 001°40'0 0.0
2014-Sep-18 10:32N 51°53' E 001°40'0 0.0
2014-Sep-18 09:29N 51°53' E 001°40'0 0.2
2014-Sep-18 08:32N 51°53' E 001°40'0 0.1
2014-Sep-18 07:31N 51°53' E 001°40'0 0.0
2014-Sep-18 06:31N 51°53' E 001°40'0 0.0
2014-Sep-18 05:31N 51°53' E 001°40'0 0.0
2014-Sep-18 04:31N 51°53' E 001°40'0 0.0
2014-Sep-18 03:31N 51°53' E 001°40'0 0.0
2014-Sep-18 02:31N 51°53' E 001°40'0 0.0
2014-Sep-18 01:31N 51°53' E 001°40'0 0.0
2014-Sep-18 00:31N 51°53' E 001°40'0 0.3
2014-Sep-17 23:33N 51°53' E 001°40'1212.0
2014-Sep-17 22:33N 51°43' E 001°49'1615.8
2014-Sep-17 21:34N 51°28' E 001°59'1515.1
2014-Sep-17 20:34N 51°21' E 002°20'1514.9
2014-Sep-17 19:33N 51°22' E 002°44'1616.2
2014-Sep-17 18:33N 51°24' E 003°10'1615.7
2014-Sep-17 17:33N 51°26' E 003°35'1110.7
2014-Sep-17 16:33N 51°21' E 003°50'8 8.0
2014-Sep-17 15:34N 51°23' E 004°03'9 9.3
2014-Sep-17 14:33N 51°21' E 004°17'0 0.1
2014-Sep-17 13:33N 51°21' E 004°17'2 1.6
2014-Sep-17 12:33N 51°20' E 004°19'1 0.7
2014-Sep-17 11:32N 51°20' E 004°20'0 0.0
2014-Sep-17 10:32N 51°20' E 004°20'0 0.0
2014-Sep-17 09:32N 51°20' E 004°20'0 0.0
2014-Sep-17 08:33N 51°20' E 004°20'0 0.1
2014-Sep-17 07:32N 51°20' E 004°20'0 0.0
2014-Sep-17 06:32N 51°20' E 004°20'0 0.0
2014-Sep-17 05:32N 51°20' E 004°20'0 0.0
2014-Sep-17 04:33N 51°20' E 004°20'0 0.0
2014-Sep-17 03:31N 51°20' E 004°20'0 0.0
2014-Sep-17 02:31N 51°20' E 004°20'0 0.0
2014-Sep-17 01:31N 51°20' E 004°20'0 0.0
2014-Sep-17 00:28N 51°20' E 004°20'0 0.0
2014-Sep-16 23:31N 51°20' E 004°20'0 0.0
2014-Sep-16 22:31N 51°20' E 004°20'0 0.0
2014-Sep-16 21:31N 51°20' E 004°20'0 0.0
2014-Sep-16 20:33N 51°20' E 004°20'0 0.0
2014-Sep-16 19:27N 51°20' E 004°20'0 0.0
2014-Sep-16 18:27N 51°20' E 004°20'0 0.0
2014-Sep-16 17:30N 51°20' E 004°20'0 0.0
2014-Sep-16 16:33N 51°20' E 004°20'0 0.0
2014-Sep-16 15:33N 51°20' E 004°20'0 0.0
2014-Sep-16 14:33N 51°20' E 004°20'0 0.0
2014-Sep-16 13:30N 51°20' E 004°20'0 0.0
2014-Sep-16 12:33N 51°20' E 004°20'0 0.0
2014-Sep-16 11:30N 51°20' E 004°20'0 0.0
2014-Sep-16 10:30N 51°20' E 004°20'0 0.0
2014-Sep-16 09:33N 51°20' E 004°20'0 0.0
2014-Sep-16 08:33N 51°20' E 004°20'2 2.3
2014-Sep-16 07:34N 51°21' E 004°17'1 0.7
2014-Sep-16 06:33N 51°21' E 004°16'9 9.1
2014-Sep-16 05:34N 51°24' E 004°02'1212.0
2014-Sep-16 04:33N 51°23' E 003°43'9 8.9
2014-Sep-16 03:33N 51°28' E 003°31'1413.5
2014-Sep-16 02:33N 51°39' E 003°19'1010.2
2014-Sep-16 01:33N 51°49' E 003°16'1716.8
2014-Sep-16 00:32N 52°06' E 003°20'1616.7
2014-Sep-15 23:33N 52°22' E 003°25'1916.9
2014-Sep-15 22:27N 52°40' E 003°35'4916.6
2014-Sep-15 19:30N 53°17' E 004°28'1816.7
2014-Sep-15 18:24N 53°34' E 004°38'1817.1
2014-Sep-15 17:20N 53°51' E 004°48'1517.0
2014-Sep-15 16:28N 54°05' E 004°56'1314.3
2014-Sep-15 15:33N 54°17' E 005°05'11 8.6
2014-Sep-15 14:17N 54°27' E 005°14'26815.9
2014-Sep-14 21:28N 57°49' E 010°29'1715.4
2014-Sep-14 20:21N 57°41' E 010°59'1316.0
2014-Sep-14 19:33N 57°33' E 011°16'1615.9
2014-Sep-14 18:34N 57°19' E 011°32'1616.3
2014-Sep-14 17:33N 57°04' E 011°42'1616.1
2014-Sep-14 16:33N 56°49' E 011°53'1515.0
2014-Sep-14 15:33N 56°35' E 011°43'11714.2
2014-Sep-14 07:17N 54°40' E 010°58'1216.8
2014-Sep-14 06:33N 54°34' E 011°17'1616.4
2014-Sep-14 05:33N 54°27' E 011°42'1616.2
2014-Sep-14 04:33N 54°26' E 012°10'1515.2
2014-Sep-14 03:33N 54°40' E 012°22'1616.1
2014-Sep-14 02:33N 54°48' E 012°46'1616.1
2014-Sep-14 01:33N 54°53' E 013°13'12515.6
2014-Sep-13 17:33N 55°59' E 016°20'31116.3
2014-Sep-12 22:29N 59°37' E 023°17'1516.5
2014-Sep-12 21:33N 59°41' E 023°47'1716.8
2014-Sep-12 20:33N 59°45' E 024°19'1716.6
2014-Sep-12 19:33N 59°49' E 024°51'3316.1
2014-Sep-12 17:29N 59°56' E 025°55'1515.8
2014-Sep-12 16:33N 60°00' E 026°24'1615.5
2014-Sep-12 15:32N 59°60' E 026°56'99 8.6
2014-Sep-12 04:06N 59°52' E 030°12'0 0.0
2014-Sep-12 03:33N 59°52' E 030°12'0 0.0
2014-Sep-12 02:30N 59°52' E 030°12'0 0.0
2014-Sep-12 01:31N 59°52' E 030°12'0 0.0
2014-Sep-11 23:33N 59°52' E 030°12'0 0.0
2014-Sep-11 22:33N 59°52' E 030°12'0 0.0
2014-Sep-11 21:34N 59°52' E 030°12'  
Track history (hours):
 
Tides and Currents Weather Stations Pressure Air Temp Water Temp Dewpoint Dewpoint Depression Visibility Wind Speed Wind Dir Waves Ship Positions

MSC Jordan

Last reported at 2014-Sep-21 20:33 UTC. Time now 2014-Oct-01 10:26 UTC.
Position N 49°37' W 000°27'.
Warning: this ship's position is 9 days out of date.

Length 237 m; draft 11.1 m.

Type: Ship. MMSI: 355194000.

Date/timePositionNaut miles runAvg speedWind from/ knotsBaromVisibWave heightAir tempDewpointWater temp
2014-Sep-21 20:33N 49°37' W 000°27'1615.9
2014-Sep-21 19:33N 49°31' W 000°04'9 8.7
2014-Sep-21 18:32N 49°28' E 000°09'0 0.0
2014-Sep-21 17:32N 49°28' E 000°09'0 0.0
2014-Sep-21 16:32N 49°28' E 000°09'0 0.0
2014-Sep-21 15:32N 49°28' E 000°09'0 0.0
2014-Sep-21 14:32N 49°28' E 000°09'0 0.0
2014-Sep-21 13:32N 49°28' E 000°09'0 0.0
2014-Sep-21 12:32N 49°28' E 000°09'0 0.0
2014-Sep-21 11:32N 49°28' E 000°09'0 0.0
2014-Sep-21 10:32N 49°28' E 000°09'0 0.0
2014-Sep-21 09:33N 49°28' E 000°09'0 0.0
2014-Sep-21 08:33N 49°28' E 000°09'0 0.0
2014-Sep-21 07:32N 49°28' E 000°09'0 0.0
2014-Sep-21 06:32N 49°28' E 000°09'0 0.0
2014-Sep-21 05:29N 49°28' E 000°09'0 0.0
2014-Sep-21 04:32N 49°28' E 000°09'0 0.0
2014-Sep-21 03:32N 49°28' E 000°09'3 2.8
2014-Sep-21 02:33N 49°29' E 000°05'1211.5
2014-Sep-21 01:33N 49°35' W 000°10'6215.5
2014-Sep-20 21:34N 50°32' E 000°27'1918.9
2014-Sep-20 20:33N 50°41' E 000°53'2618.8
2014-Sep-20 19:09N 50°59' E 001°24'1220.5
2014-Sep-20 18:33N 51°08' E 001°37'2020.5
2014-Sep-20 17:33N 51°26' E 001°51'2020.1
2014-Sep-20 16:33N 51°46' E 001°44'1414.0
2014-Sep-20 15:33N 51°56' E 001°29'7 6.6
2014-Sep-20 14:31N 51°58' E 001°18'0 0.0
2014-Sep-20 13:31N 51°58' E 001°18'0 0.0
2014-Sep-20 12:31N 51°58' E 001°18'0 0.0
2014-Sep-20 11:31N 51°58' E 001°18'0 0.0
2014-Sep-20 10:31N 51°58' E 001°18'0 0.0
2014-Sep-20 09:32N 51°58' E 001°18'0 0.0
2014-Sep-20 08:33N 51°58' E 001°18'0 0.0
2014-Sep-20 07:31N 51°58' E 001°18'0 0.0
2014-Sep-20 06:31N 51°58' E 001°18'0 0.0
2014-Sep-20 05:33N 51°58' E 001°18'0 0.0
2014-Sep-20 04:33N 51°58' E 001°18'0 0.0
2014-Sep-20 03:33N 51°58' E 001°18'0 0.0
2014-Sep-20 02:33N 51°58' E 001°18'0 0.0
2014-Sep-20 01:32N 51°58' E 001°18'0 0.0
2014-Sep-20 00:32N 51°58' E 001°18'0 0.0
2014-Sep-19 23:32N 51°58' E 001°18'0 0.0
2014-Sep-19 22:32N 51°58' E 001°18'0 0.0
2014-Sep-19 21:32N 51°58' E 001°18'0 0.0
2014-Sep-19 20:32N 51°58' E 001°18'0 0.0
2014-Sep-19 19:32N 51°58' E 001°18'0 0.0
2014-Sep-19 18:31N 51°58' E 001°18'0 0.0
2014-Sep-19 17:32N 51°58' E 001°18'0 0.0
2014-Sep-19 16:31N 51°58' E 001°18'0 0.0
2014-Sep-19 15:31N 51°58' E 001°18'0 0.0
2014-Sep-19 14:32N 51°58' E 001°18'0 0.0
2014-Sep-19 13:31N 51°58' E 001°18'3 2.9
2014-Sep-19 12:33N 51°56' E 001°21'1111.4
2014-Sep-19 11:34N 51°52' E 001°39'2 1.8
2014-Sep-19 10:33N 51°53' E 001°40'0 0.2
2014-Sep-19 09:32N 51°53' E 001°40'0 0.0
2014-Sep-19 08:32N 51°53' E 001°40'0 0.0
2014-Sep-19 07:32N 51°53' E 001°40'0 0.0
2014-Sep-19 06:32N 51°53' E 001°40'0 0.0
2014-Sep-19 05:32N 51°53' E 001°40'0 0.0
2014-Sep-19 04:32N 51°53' E 001°40'0 0.0
2014-Sep-19 03:32N 51°53' E 001°40'0 0.0
2014-Sep-19 02:32N 51°53' E 001°40'0 0.0
2014-Sep-19 01:32N 51°53' E 001°40'0 0.2
2014-Sep-19 00:32N 51°53' E 001°40'0 0.1
2014-Sep-18 23:32N 51°54' E 001°40'0 0.0
2014-Sep-18 22:32N 51°54' E 001°40'0 0.2
2014-Sep-18 21:32N 51°53' E 001°40'0 0.2
2014-Sep-18 20:32N 51°53' E 001°40'0 0.0
2014-Sep-18 19:32N 51°53' E 001°40'0 0.0
2014-Sep-18 18:32N 51°53' E 001°40'0 0.0
2014-Sep-18 17:32N 51°53' E 001°40'0 0.0
2014-Sep-18 16:32N 51°53' E 001°40'0 0.0
2014-Sep-18 15:32N 51°53' E 001°40'0 0.0
2014-Sep-18 14:32N 51°53' E 001°40'0 0.0
2014-Sep-18 13:32N 51°53' E 001°40'0 0.2
2014-Sep-18 12:32N 51°53' E 001°40'0 0.1
2014-Sep-18 11:32N 51°53' E 001°40'0 0.0
2014-Sep-18 10:32N 51°53' E 001°40'0 0.0
2014-Sep-18 09:29N 51°53' E 001°40'0 0.2
2014-Sep-18 08:32N 51°53' E 001°40'0 0.1
2014-Sep-18 07:31N 51°53' E 001°40'0 0.0
2014-Sep-18 06:31N 51°53' E 001°40'0 0.0
2014-Sep-18 05:31N 51°53' E 001°40'0 0.0
2014-Sep-18 04:31N 51°53' E 001°40'0 0.0
2014-Sep-18 03:31N 51°53' E 001°40'0 0.0
2014-Sep-18 02:31N 51°53' E 001°40'0 0.0
2014-Sep-18 01:31N 51°53' E 001°40'0 0.0
2014-Sep-18 00:31N 51°53' E 001°40'0 0.3
2014-Sep-17 23:33N 51°53' E 001°40'1212.0
2014-Sep-17 22:33N 51°43' E 001°49'1615.8
2014-Sep-17 21:34N 51°28' E 001°59'1515.1
2014-Sep-17 20:34N 51°21' E 002°20'1514.9
2014-Sep-17 19:33N 51°22' E 002°44'1616.2
2014-Sep-17 18:33N 51°24' E 003°10'1615.7
2014-Sep-17 17:33N 51°26' E 003°35'1110.7
2014-Sep-17 16:33N 51°21' E 003°50'8 8.0
2014-Sep-17 15:34N 51°23' E 004°03'9 9.3
2014-Sep-17 14:33N 51°21' E 004°17'0 0.1
2014-Sep-17 13:33N 51°21' E 004°17'2 1.6
2014-Sep-17 12:33N 51°20' E 004°19'1 0.7
2014-Sep-17 11:32N 51°20' E 004°20'0 0.0
2014-Sep-17 10:32N 51°20' E 004°20'0 0.0
2014-Sep-17 09:32N 51°20' E 004°20'0 0.0
2014-Sep-17 08:33N 51°20' E 004°20'0 0.1
2014-Sep-17 07:32N 51°20' E 004°20'0 0.0
2014-Sep-17 06:32N 51°20' E 004°20'0 0.0
2014-Sep-17 05:32N 51°20' E 004°20'0 0.0
2014-Sep-17 04:33N 51°20' E 004°20'0 0.0
2014-Sep-17 03:31N 51°20' E 004°20'0 0.0
2014-Sep-17 02:31N 51°20' E 004°20'0 0.0
2014-Sep-17 01:31N 51°20' E 004°20'0 0.0
2014-Sep-17 00:28N 51°20' E 004°20'0 0.0
2014-Sep-16 23:31N 51°20' E 004°20'0 0.0
2014-Sep-16 22:31N 51°20' E 004°20'0 0.0
2014-Sep-16 21:31N 51°20' E 004°20'0 0.0
2014-Sep-16 20:33N 51°20' E 004°20'0 0.0
2014-Sep-16 19:27N 51°20' E 004°20'0 0.0
2014-Sep-16 18:27N 51°20' E 004°20'0 0.0
2014-Sep-16 17:30N 51°20' E 004°20'0 0.0
2014-Sep-16 16:33N 51°20' E 004°20'0 0.0
2014-Sep-16 15:33N 51°20' E 004°20'0 0.0
2014-Sep-16 14:33N 51°20' E 004°20'0 0.0
2014-Sep-16 13:30N 51°20' E 004°20'0 0.0
2014-Sep-16 12:33N 51°20' E 004°20'0 0.0
2014-Sep-16 11:30N 51°20' E 004°20'0 0.0
2014-Sep-16 10:30N 51°20' E 004°20'0 0.0
2014-Sep-16 09:33N 51°20' E 004°20'0 0.0
2014-Sep-16 08:33N 51°20' E 004°20'2 2.3
2014-Sep-16 07:34N 51°21' E 004°17'1 0.7
2014-Sep-16 06:33N 51°21' E 004°16'9 9.1
2014-Sep-16 05:34N 51°24' E 004°02'1212.0
2014-Sep-16 04:33N 51°23' E 003°43'9 8.9
2014-Sep-16 03:33N 51°28' E 003°31'1413.5
2014-Sep-16 02:33N 51°39' E 003°19'1010.2
2014-Sep-16 01:33N 51°49' E 003°16'1716.8
2014-Sep-16 00:32N 52°06' E 003°20'1616.7
2014-Sep-15 23:33N 52°22' E 003°25'1916.9
2014-Sep-15 22:27N 52°40' E 003°35'4916.6
2014-Sep-15 19:30N 53°17' E 004°28'1816.7
2014-Sep-15 18:24N 53°34' E 004°38'1817.1
2014-Sep-15 17:20N 53°51' E 004°48'1517.0
2014-Sep-15 16:28N 54°05' E 004°56'1314.3
2014-Sep-15 15:33N 54°17' E 005°05'11 8.6
2014-Sep-15 14:17N 54°27' E 005°14'26815.9
2014-Sep-14 21:28N 57°49' E 010°29'1715.4
2014-Sep-14 20:21N 57°41' E 010°59'1316.0
2014-Sep-14 19:33N 57°33' E 011°16'1615.9
2014-Sep-14 18:34N 57°19' E 011°32'1616.3
2014-Sep-14 17:33N 57°04' E 011°42'1616.1
2014-Sep-14 16:33N 56°49' E 011°53'1515.0
2014-Sep-14 15:33N 56°35' E 011°43'11714.2
2014-Sep-14 07:17N 54°40' E 010°58'1216.8
2014-Sep-14 06:33N 54°34' E 011°17'1616.4
2014-Sep-14 05:33N 54°27' E 011°42'1616.2
2014-Sep-14 04:33N 54°26' E 012°10'1515.2
2014-Sep-14 03:33N 54°40' E 012°22'1616.1
2014-Sep-14 02:33N 54°48' E 012°46'1616.1
2014-Sep-14 01:33N 54°53' E 013°13'12515.6
2014-Sep-13 17:33N 55°59' E 016°20'31116.3
2014-Sep-12 22:29N 59°37' E 023°17'1516.5
2014-Sep-12 21:33N 59°41' E 023°47'1716.8
2014-Sep-12 20:33N 59°45' E 024°19'1716.6
2014-Sep-12 19:33N 59°49' E 024°51'3316.1
2014-Sep-12 17:29N 59°56' E 025°55'1515.8
2014-Sep-12 16:33N 60°00' E 026°24'1615.5
2014-Sep-12 15:32N 59°60' E 026°56'99 8.6
2014-Sep-12 04:06N 59°52' E 030°12'0 0.0
2014-Sep-12 03:33N 59°52' E 030°12'0 0.0
2014-Sep-12 02:30N 59°52' E 030°12'0 0.0
2014-Sep-12 01:31N 59°52' E 030°12'0 0.0
2014-Sep-11 23:33N 59°52' E 030°12'0 0.0
2014-Sep-11 22:33N 59°52' E 030°12'0 0.0
2014-Sep-11 21:34N 59°52' E 030°12'  

Dump ship's entire track history